sensor_id;sensor_type;location;lat;lon;timestamp;pressure;altitude;pressure_sealevel;temperature;humidity
21111;BME280;10713;51.912;4.494;2023-02-12T00:02:03;103813.75;;;10.08;100.00
21111;BME280;10713;51.912;4.494;2023-02-12T00:04:28;103811.09;;;10.08;100.00
21111;BME280;10713;51.912;4.494;2023-02-12T00:06:54;103814.63;;;10.09;100.00
21111;BME280;10713;51.912;4.494;2023-02-12T00:09:19;103803.19;;;10.08;100.00
21111;BME280;10713;51.912;4.494;2023-02-12T00:11:44;103812.84;;;10.05;100.00
21111;BME280;10713;51.912;4.494;2023-02-12T00:14:10;103816.34;;;10.05;100.00
21111;BME280;10713;51.912;4.494;2023-02-12T00:16:35;103819.81;;;10.00;100.00
21111;BME280;10713;51.912;4.494;2023-02-12T00:19:00;103818.00;;;9.96;100.00
21111;BME280;10713;51.912;4.494;2023-02-12T00:21:26;103812.72;;;9.96;100.00
21111;BME280;10713;51.912;4.494;2023-02-12T00:23:52;103812.69;;;9.92;100.00
21111;BME280;10713;51.912;4.494;2023-02-12T00:26:19;103807.44;;;9.94;100.00
21111;BME280;10713;51.912;4.494;2023-02-12T00:28:45;103818.88;;;9.93;100.00
21111;BME280;10713;51.912;4.494;2023-02-12T00:31:16;103811.84;;;9.93;100.00
21111;BME280;10713;51.912;4.494;2023-02-12T00:33:41;103809.19;;;9.95;100.00
21111;BME280;10713;51.912;4.494;2023-02-12T00:36:08;103811.88;;;9.97;100.00
21111;BME280;10713;51.912;4.494;2023-02-12T00:38:34;103809.19;;;9.95;100.00
21111;BME280;10713;51.912;4.494;2023-02-12T00:40:59;103808.34;;;9.96;100.00
21111;BME280;10713;51.912;4.494;2023-02-12T00:43:25;103809.19;;;9.95;100.00
21111;BME280;10713;51.912;4.494;2023-02-12T00:45:50;103810.00;;;9.88;100.00
21111;BME280;10713;51.912;4.494;2023-02-12T00:48:16;103809.97;;;9.86;100.00
21111;BME280;10713;51.912;4.494;2023-02-12T00:50:45;103799.44;;;9.86;100.00
21111;BME280;10713;51.912;4.494;2023-02-12T00:53:11;103809.09;;;9.84;100.00
21111;BME280;10713;51.912;4.494;2023-02-12T00:55:36;103806.41;;;9.80;100.00
21111;BME280;10713;51.912;4.494;2023-02-12T00:58:01;103804.63;;;9.80;100.00
21111;BME280;10713;51.912;4.494;2023-02-12T01:00:27;103806.47;;;9.84;100.00
21111;BME280;10713;51.912;4.494;2023-02-12T01:02:52;103809.09;;;9.86;100.00
21111;BME280;10713;51.912;4.494;2023-02-12T01:05:18;103807.38;;;9.88;100.00
21111;BME280;10713;51.912;4.494;2023-02-12T01:07:48;103806.50;;;9.87;100.00
21111;BME280;10713;51.912;4.494;2023-02-12T01:10:13;103801.22;;;9.89;100.00
21111;BME280;10713;51.912;4.494;2023-02-12T01:12:38;103801.22;;;9.89;100.00
21111;BME280;10713;51.912;4.494;2023-02-12T01:15:04;103800.31;;;9.85;100.00
21111;BME280;10713;51.912;4.494;2023-02-12T01:17:29;103800.22;;;9.76;100.00
21111;BME280;10713;51.912;4.494;2023-02-12T01:19:56;103797.50;;;9.72;100.00
21111;BME280;10713;51.912;4.494;2023-02-12T01:22:22;103801.88;;;9.68;100.00
21111;BME280;10713;51.912;4.494;2023-02-12T01:24:47;103802.72;;;9.67;100.00
21111;BME280;10713;51.912;4.494;2023-02-12T01:27:14;103802.72;;;9.67;100.00
21111;BME280;10713;51.912;4.494;2023-02-12T01:29:39;103804.47;;;9.65;100.00
21111;BME280;10713;51.912;4.494;2023-02-12T01:32:09;103810.63;;;9.67;100.00
21111;BME280;10713;51.912;4.494;2023-02-12T01:34:34;103806.28;;;9.67;100.00
21111;BME280;10713;51.912;4.494;2023-02-12T01:36:59;103807.16;;;9.68;100.00
21111;BME280;10713;51.912;4.494;2023-02-12T01:39:25;103804.53;;;9.73;100.00
21111;BME280;10713;51.912;4.494;2023-02-12T01:41:50;103804.56;;;9.74;100.00
21111;BME280;10713;51.912;4.494;2023-02-12T01:44:21;103804.56;;;9.74;100.00
21111;BME280;10713;51.912;4.494;2023-02-12T01:46:51;103807.22;;;9.76;100.00
21111;BME280;10713;51.912;4.494;2023-02-12T01:51:45;103805.31;;;9.62;100.00
21111;BME280;10713;51.912;4.494;2023-02-12T01:54:12;103807.88;;;9.58;100.00
21111;BME280;10713;51.912;4.494;2023-02-12T01:56:39;103805.19;;;9.52;100.00
21111;BME280;10713;51.912;4.494;2023-02-12T01:59:05;103807.78;;;9.48;100.00
21111;BME280;10713;51.912;4.494;2023-02-12T02:01:31;103811.31;;;9.47;100.00
21111;BME280;10713;51.912;4.494;2023-02-12T02:04:01;103813.09;;;9.50;100.00
21111;BME280;10713;51.912;4.494;2023-02-12T02:06:35;103810.41;;;9.48;100.00
21111;BME280;10713;51.912;4.494;2023-02-12T02:09:03;103813.03;;;9.45;100.00
21111;BME280;10713;51.912;4.494;2023-02-12T02:11:28;103805.06;;;9.42;100.00
21111;BME280;10713;51.912;4.494;2023-02-12T02:14:13;103809.50;;;9.45;100.00
21111;BME280;10713;51.912;4.494;2023-02-12T02:17:09;103813.09;;;9.52;100.00
21111;BME280;10713;51.912;4.494;2023-02-12T02:22:39;103816.53;;;9.44;100.00
21111;BME280;10713;51.912;4.494;2023-02-12T02:31:03;103807.75;;;9.45;100.00
21111;BME280;10713;51.912;4.494;2023-02-12T02:33:38;103807.78;;;9.48;100.00
21111;BME280;10713;51.912;4.494;2023-02-12T02:38:47;103809.53;;;9.48;100.00
21111;BME280;10713;51.912;4.494;2023-02-12T02:43:49;103808.63;;;9.46;100.00
21111;BME280;10713;51.912;4.494;2023-02-12T02:46:29;103813.94;;;9.47;100.00
21111;BME280;10713;51.912;4.494;2023-02-12T02:48:59;103803.38;;;9.49;100.00
21111;BME280;10713;51.912;4.494;2023-02-12T02:51:30;103800.75;;;9.49;100.00
21111;BME280;10713;51.912;4.494;2023-02-12T02:54:11;103804.31;;;9.53;100.00
21111;BME280;10713;51.912;4.494;2023-02-12T02:56:42;103806.06;;;9.51;100.00
21111;BME280;10713;51.912;4.494;2023-02-12T02:59:28;103802.56;;;9.53;100.00
21111;BME280;10713;51.912;4.494;2023-02-12T03:02:02;103802.56;;;9.55;100.00
21111;BME280;10713;51.912;4.494;2023-02-12T03:04:33;103802.53;;;9.52;100.00
21111;BME280;10713;51.912;4.494;2023-02-12T03:07:12;103791.97;;;9.48;100.00
21111;BME280;10713;51.912;4.494;2023-02-12T03:09:47;103794.56;;;9.45;100.00
21111;BME280;10713;51.912;4.494;2023-02-12T03:12:18;103796.31;;;9.46;100.00
21111;BME280;10713;51.912;4.494;2023-02-12T03:14:49;103796.31;;;9.46;100.00
21111;BME280;10713;51.912;4.494;2023-02-12T03:17:24;103797.19;;;9.47;100.00
21111;BME280;10713;51.912;4.494;2023-02-12T03:20:02;103798.16;;;9.51;100.00
21111;BME280;10713;51.912;4.494;2023-02-12T03:22:33;103794.59;;;9.48;100.00
21111;BME280;10713;51.912;4.494;2023-02-12T03:25:08;103791.00;;;9.43;100.00
21111;BME280;10713;51.912;4.494;2023-02-12T03:27:45;103796.25;;;9.40;100.00
21111;BME280;10713;51.912;4.494;2023-02-12T03:30:12;103797.16;;;9.42;100.00
21111;BME280;10713;51.912;4.494;2023-02-12T03:32:56;103802.41;;;9.41;100.00
21111;BME280;10713;51.912;4.494;2023-02-12T03:35:31;103793.63;;;9.40;100.00
21111;BME280;10713;51.912;4.494;2023-02-12T03:40:57;103795.47;;;9.47;100.00
21111;BME280;10713;51.912;4.494;2023-02-12T03:43:30;103791.09;;;9.48;100.00
21111;BME280;10713;51.912;4.494;2023-02-12T03:46:20;103791.13;;;9.53;100.00
21111;BME280;10713;51.912;4.494;2023-02-12T03:53:39;103787.63;;;9.55;100.00
21111;BME280;10713;51.912;4.494;2023-02-12T03:56:11;103795.59;;;9.57;100.00
21111;BME280;10713;51.912;4.494;2023-02-12T03:58:38;103790.31;;;9.57;100.00
21111;BME280;10713;51.912;4.494;2023-02-12T04:01:05;103787.66;;;9.57;100.00
21111;BME280;10713;51.912;4.494;2023-02-12T04:03:31;103794.69;;;9.58;100.00
21111;BME280;10713;51.912;4.494;2023-02-12T04:05:57;103796.47;;;9.56;100.00
21111;BME280;10713;51.912;4.494;2023-02-12T04:08:23;103790.28;;;9.55;100.00
21111;BME280;10713;51.912;4.494;2023-02-12T04:16:46;103803.56;;;9.63;100.00
21111;BME280;10713;51.912;4.494;2023-02-12T04:19:21;103803.56;;;9.63;100.00
21111;BME280;10713;51.912;4.494;2023-02-12T04:22:07;103804.44;;;9.62;100.00
21111;BME280;10713;51.912;4.494;2023-02-12T04:27:35;103818.53;;;9.65;100.00
21111;BME280;10713;51.912;4.494;2023-02-12T04:30:45;103817.66;;;9.66;100.00
21111;BME280;10713;51.912;4.494;2023-02-12T04:33:17;103816.81;;;9.67;100.00
21111;BME280;10713;51.912;4.494;2023-02-12T04:35:53;103825.56;;;9.66;100.00
21111;BME280;10713;51.912;4.494;2023-02-12T04:38:47;103834.41;;;9.68;100.00
21111;BME280;10713;51.912;4.494;2023-02-12T04:41:15;103828.22;;;9.65;100.00
21111;BME280;10713;51.912;4.494;2023-02-12T04:43:40;103833.53;;;9.68;100.00
21111;BME280;10713;51.912;4.494;2023-02-12T04:46:06;103825.66;;;9.73;100.00
21111;BME280;10713;51.912;4.494;2023-02-12T04:48:33;103831.84;;;9.73;100.00
21111;BME280;10713;51.912;4.494;2023-02-12T04:50:59;103822.13;;;9.70;100.00
21111;BME280;10713;51.912;4.494;2023-02-12T04:53:25;103826.53;;;9.70;100.00
21111;BME280;10713;51.912;4.494;2023-02-12T04:55:50;103824.75;;;9.70;100.00
21111;BME280;10713;51.912;4.494;2023-02-12T04:58:16;103830.91;;;9.73;100.00
21111;BME280;10713;51.912;4.494;2023-02-12T05:00:42;103827.41;;;9.72;100.00
21111;BME280;10713;51.912;4.494;2023-02-12T05:03:08;103823.88;;;9.70;100.00
21111;BME280;10713;51.912;4.494;2023-02-12T05:05:33;103820.34;;;9.69;100.00
21111;BME280;10713;51.912;4.494;2023-02-12T05:07:59;103822.97;;;9.69;100.00
21111;BME280;10713;51.912;4.494;2023-02-12T05:10:24;103816.81;;;9.67;100.00
21111;BME280;10713;51.912;4.494;2023-02-12T05:12:53;103816.81;;;9.69;100.00
21111;BME280;10713;51.912;4.494;2023-02-12T05:15:20;103812.38;;;9.65;100.00
21111;BME280;10713;51.912;4.494;2023-02-12T05:17:45;103822.06;;;9.64;100.00
21111;BME280;10713;51.912;4.494;2023-02-12T05:20:12;103815.91;;;9.65;100.00
21111;BME280;10713;51.912;4.494;2023-02-12T05:22:37;103816.78;;;9.66;100.00
21111;BME280;10713;51.912;4.494;2023-02-12T05:25:03;103816.81;;;9.67;100.00
21111;BME280;10713;51.912;4.494;2023-02-12T05:27:29;103816.78;;;9.66;100.00
21111;BME280;10713;51.912;4.494;2023-02-12T05:29:54;103821.16;;;9.64;100.00
21111;BME280;10713;51.912;4.494;2023-02-12T05:32:21;103821.19;;;9.65;100.00
21111;BME280;10713;51.912;4.494;2023-02-12T05:34:46;103824.69;;;9.64;100.00
21111;BME280;10713;51.912;4.494;2023-02-12T05:37:12;103822.94;;;9.66;100.00
21111;BME280;10713;51.912;4.494;2023-02-12T05:39:37;103814.16;;;9.64;100.00
21111;BME280;10713;51.912;4.494;2023-02-12T05:42:03;103822.06;;;9.64;100.00
21111;BME280;10713;51.912;4.494;2023-02-12T05:44:28;103820.31;;;9.65;100.00
21111;BME280;10713;51.912;4.494;2023-02-12T05:46:53;103813.25;;;9.65;100.00
21111;BME280;10713;51.912;4.494;2023-02-12T05:49:19;103823.81;;;9.65;100.00
21111;BME280;10713;51.912;4.494;2023-02-12T05:51:44;103823.81;;;9.65;100.00
21111;BME280;10713;51.912;4.494;2023-02-12T05:54:09;103821.19;;;9.67;100.00
21111;BME280;10713;51.912;4.494;2023-02-12T05:56:41;103826.53;;;9.70;100.00
21111;BME280;10713;51.912;4.494;2023-02-12T05:59:11;103825.59;;;9.69;100.00
21111;BME280;10713;51.912;4.494;2023-02-12T06:01:39;103828.25;;;9.68;100.00
21111;BME280;10713;51.912;4.494;2023-02-12T06:04:09;103829.13;;;9.68;100.00
21111;BME280;10713;51.912;4.494;2023-02-12T06:06:37;103829.09;;;9.67;100.00
21111;BME280;10713;51.912;4.494;2023-02-12T06:09:06;103823.84;;;9.68;100.00
21111;BME280;10713;51.912;4.494;2023-02-12T06:11:32;103822.09;;;9.69;100.00
21111;BME280;10713;51.912;4.494;2023-02-12T06:13:57;103826.47;;;9.67;100.00
21111;BME280;10713;51.912;4.494;2023-02-12T06:16:27;103828.22;;;9.66;100.00
21111;BME280;10713;51.912;4.494;2023-02-12T06:18:53;103828.22;;;9.66;100.00
21111;BME280;10713;51.912;4.494;2023-02-12T06:21:20;103823.81;;;9.67;100.00
21111;BME280;10713;51.912;4.494;2023-02-12T06:23:47;103822.94;;;9.66;100.00
21111;BME280;10713;51.912;4.494;2023-02-12T06:26:13;103822.94;;;9.65;100.00
21111;BME280;10713;51.912;4.494;2023-02-12T06:28:38;103826.41;;;9.62;100.00
21111;BME280;10713;51.912;4.494;2023-02-12T06:31:04;103820.25;;;9.62;100.00
21111;BME280;10713;51.912;4.494;2023-02-12T06:33:29;103821.16;;;9.62;100.00
21111;BME280;10713;51.912;4.494;2023-02-12T06:35:55;103824.66;;;9.63;100.00
21111;BME280;10713;51.912;4.494;2023-02-12T06:38:20;103822.94;;;9.65;100.00
21111;BME280;10713;51.912;4.494;2023-02-12T06:40:46;103823.81;;;9.65;100.00
21111;BME280;10713;51.912;4.494;2023-02-12T06:43:11;103824.69;;;9.64;100.00
21111;BME280;10713;51.912;4.494;2023-02-12T06:45:37;103816.78;;;9.64;100.00
21111;BME280;10713;51.912;4.494;2023-02-12T06:48:03;103823.78;;;9.62;100.00
21111;BME280;10713;51.912;4.494;2023-02-12T06:50:28;103823.78;;;9.62;100.00
21111;BME280;10713;51.912;4.494;2023-02-12T06:52:54;103832.53;;;9.61;100.00
21111;BME280;10713;51.912;4.494;2023-02-12T06:55:19;103833.47;;;9.63;100.00
21111;BME280;10713;51.912;4.494;2023-02-12T06:57:45;103833.50;;;9.65;100.00
21111;BME280;10713;51.912;4.494;2023-02-12T07:00:10;103831.75;;;9.68;100.00
21111;BME280;10713;51.912;4.494;2023-02-12T07:02:36;103837.91;;;9.67;100.00
21111;BME280;10713;51.912;4.494;2023-02-12T07:05:02;103836.97;;;9.62;100.00
21111;BME280;10713;51.912;4.494;2023-02-12T07:07:28;103849.28;;;9.63;100.00
21111;BME280;10713;51.912;4.494;2023-02-12T07:09:53;103848.44;;;9.64;100.00
21111;BME280;10713;51.912;4.494;2023-02-12T07:12:18;103844.03;;;9.65;100.00
21111;BME280;10713;51.912;4.494;2023-02-12T07:14:44;103855.44;;;9.62;100.00
21111;BME280;10713;51.912;4.494;2023-02-12T07:17:09;103858.03;;;9.61;100.00
21111;BME280;10713;51.912;4.494;2023-02-12T07:19:35;103859.00;;;9.64;100.00
21111;BME280;10713;51.912;4.494;2023-02-12T07:22:00;103866.94;;;9.69;100.00
21111;BME280;10713;51.912;4.494;2023-02-12T07:24:26;103858.19;;;9.72;100.00
21111;BME280;10713;51.912;4.494;2023-02-12T07:26:51;103863.50;;;9.73;100.00
21111;BME280;10713;51.912;4.494;2023-02-12T07:29:17;103863.50;;;9.75;100.00
21111;BME280;10713;51.912;4.494;2023-02-12T07:31:42;103866.13;;;9.75;100.00
21111;BME280;10713;51.912;4.494;2023-02-12T07:34:08;103871.47;;;9.79;100.00
21111;BME280;10713;51.912;4.494;2023-02-12T07:36:34;103869.69;;;9.77;100.00
21111;BME280;10713;51.912;4.494;2023-02-12T07:39:00;103878.53;;;9.82;100.00
21111;BME280;10713;51.912;4.494;2023-02-12T07:41:33;103878.66;;;9.92;100.00
21111;BME280;10713;51.912;4.494;2023-02-12T07:44:01;103870.84;;;9.99;100.00
21111;BME280;10713;51.912;4.494;2023-02-12T07:46:51;103877.91;;;10.04;100.00
21111;BME280;10713;51.912;4.494;2023-02-12T07:49:20;103882.31;;;10.02;100.00
21111;BME280;10713;51.912;4.494;2023-02-12T07:51:47;103885.78;;;10.01;100.00
21111;BME280;10713;51.912;4.494;2023-02-12T07:54:13;103885.78;;;10.00;100.00
21111;BME280;10713;51.912;4.494;2023-02-12T07:56:40;103892.81;;;10.01;100.00
21111;BME280;10713;51.912;4.494;2023-02-12T07:59:11;103880.50;;;10.01;100.00
21111;BME280;10713;51.912;4.494;2023-02-12T08:01:39;103877.88;;;10.00;100.00
21111;BME280;10713;51.912;4.494;2023-02-12T08:04:10;103886.66;;;9.99;100.00
21111;BME280;10713;51.912;4.494;2023-02-12T08:06:38;103887.56;;;10.01;100.00
21111;BME280;10713;51.912;4.494;2023-02-12T08:09:06;103888.50;;;10.06;100.00
21111;BME280;10713;51.912;4.494;2023-02-12T08:11:34;103880.53;;;10.04;100.00
21111;BME280;10713;51.912;4.494;2023-02-12T08:14:00;103882.31;;;10.04;100.00
21111;BME280;10713;51.912;4.494;2023-02-12T08:16:27;103893.75;;;10.04;100.00
21111;BME280;10713;51.912;4.494;2023-02-12T08:18:52;103893.75;;;10.04;100.00
21111;BME280;10713;51.912;4.494;2023-02-12T08:21:21;103884.97;;;10.07;100.00
21111;BME280;10713;51.912;4.494;2023-02-12T08:23:47;103884.09;;;10.05;100.00
21111;BME280;10713;51.912;4.494;2023-02-12T08:26:24;103886.78;;;10.09;100.00
21111;BME280;10713;51.912;4.494;2023-02-12T08:31:32;103895.63;;;10.13;100.00
21111;BME280;10713;51.912;4.494;2023-02-12T08:33:58;103901.72;;;10.09;100.00
21111;BME280;10713;51.912;4.494;2023-02-12T08:36:26;103899.13;;;10.12;100.00
21111;BME280;10713;51.912;4.494;2023-02-12T08:38:52;103897.31;;;10.09;100.00
21111;BME280;10713;51.912;4.494;2023-02-12T08:41:20;103902.59;;;10.09;100.00
21111;BME280;10713;51.912;4.494;2023-02-12T08:43:46;103900.84;;;10.10;100.00
21111;BME280;10713;51.912;4.494;2023-02-12T08:46:15;103904.44;;;10.13;100.00
21111;BME280;10713;51.912;4.494;2023-02-12T08:48:42;103910.63;;;10.17;100.00
21111;BME280;10713;51.912;4.494;2023-02-12T08:51:19;103907.09;;;10.18;100.00
21111;BME280;10713;51.912;4.494;2023-02-12T08:53:47;103916.78;;;10.18;100.00
21111;BME280;10713;51.912;4.494;2023-02-12T08:56:15;103915.03;;;10.18;100.00
21111;BME280;10713;51.912;4.494;2023-02-12T08:58:41;103914.13;;;10.18;100.00
21111;BME280;10713;51.912;4.494;2023-02-12T09:01:19;103914.19;;;10.19;100.00
21111;BME280;10713;51.912;4.494;2023-02-12T09:03:45;103912.41;;;10.21;100.00
21111;BME280;10713;51.912;4.494;2023-02-12T09:06:11;103921.25;;;10.22;100.00
21111;BME280;10713;51.912;4.494;2023-02-12T09:08:38;103922.22;;;10.28;100.00
21111;BME280;10713;51.912;4.494;2023-02-12T09:11:09;103921.38;;;10.32;100.00
21111;BME280;10713;51.912;4.494;2023-02-12T09:13:35;103920.47;;;10.29;100.00
21111;BME280;10713;51.912;4.494;2023-02-12T09:16:02;103919.63;;;10.33;100.00
21111;BME280;10713;51.912;4.494;2023-02-12T09:18:28;103917.84;;;10.30;100.00
21111;BME280;10713;51.912;4.494;2023-02-12T09:20:54;103926.69;;;10.35;100.00
21111;BME280;10713;51.912;4.494;2023-02-12T09:23:19;103931.16;;;10.40;100.00
21111;BME280;10713;51.912;4.494;2023-02-12T09:25:45;103934.72;;;10.42;100.00
21111;BME280;10713;51.912;4.494;2023-02-12T09:28:13;103934.72;;;10.45;100.00
21111;BME280;10713;51.912;4.494;2023-02-12T09:30:39;103938.25;;;10.47;100.00
21111;BME280;10713;51.912;4.494;2023-02-12T09:33:07;103933.81;;;10.44;100.00
21111;BME280;10713;51.912;4.494;2023-02-12T09:35:34;103935.59;;;10.42;100.00
21111;BME280;10713;51.912;4.494;2023-02-12T09:38:00;103939.06;;;10.41;100.00
21111;BME280;10713;51.912;4.494;2023-02-12T09:43:41;103937.34;;;10.42;100.00
21111;BME280;10713;51.912;4.494;2023-02-12T09:49:09;103933.91;;;10.52;100.00
21111;BME280;10713;51.912;4.494;2023-02-12T09:51:39;103933.97;;;10.56;100.00
21111;BME280;10713;51.912;4.494;2023-02-12T09:54:14;103924.31;;;10.60;100.00
21111;BME280;10713;51.912;4.494;2023-02-12T09:56:45;103927.84;;;10.64;100.00
21111;BME280;10713;51.912;4.494;2023-02-12T09:59:19;103934.06;;;10.67;100.00
21111;BME280;10713;51.912;4.494;2023-02-12T10:01:47;103933.16;;;10.64;100.00
21111;BME280;10713;51.912;4.494;2023-02-12T10:04:12;103928.72;;;10.61;100.00
21111;BME280;10713;51.912;4.494;2023-02-12T10:06:47;103927.03;;;10.69;100.00
21111;BME280;10713;51.912;4.494;2023-02-12T10:09:44;103924.47;;;10.77;100.00
21111;BME280;10713;51.912;4.494;2023-02-12T10:15:07;103929.81;;;10.83;100.00
21111;BME280;10713;51.912;4.494;2023-02-12T10:17:41;103920.16;;;10.88;100.00
21111;BME280;10713;51.912;4.494;2023-02-12T10:25:50;103924.66;;;11.00;100.00
21111;BME280;10713;51.912;4.494;2023-02-12T10:28:25;103924.69;;;11.03;100.00
21111;BME280;10713;51.912;4.494;2023-02-12T10:33:30;103926.47;;;11.07;100.00
21111;BME280;10713;51.912;4.494;2023-02-12T10:39:03;103919.50;;;11.18;100.00
21111;BME280;10713;51.912;4.494;2023-02-12T10:41:31;103923.94;;;11.21;100.00
21111;BME280;10713;51.912;4.494;2023-02-12T10:44:00;103933.69;;;11.28;100.00
21111;BME280;10713;51.912;4.494;2023-02-12T10:46:29;103922.25;;;11.29;100.00
21111;BME280;10713;51.912;4.494;2023-02-12T10:48:57;103922.22;;;11.26;100.00
21111;BME280;10713;51.912;4.494;2023-02-12T10:54:34;103919.63;;;11.31;100.00
21111;BME280;10713;51.912;4.494;2023-02-12T10:57:22;103926.69;;;11.35;100.00
21111;BME280;10713;51.912;4.494;2023-02-12T10:59:51;103924.97;;;11.40;100.00
21111;BME280;10713;51.912;4.494;2023-02-12T11:02:29;103925.84;;;11.43;100.00
21111;BME280;10713;51.912;4.494;2023-02-12T11:04:56;103921.44;;;11.41;100.00
21111;BME280;10713;51.912;4.494;2023-02-12T11:07:22;103924.06;;;11.36;100.00
21111;BME280;10713;51.912;4.494;2023-02-12T11:09:50;103919.66;;;11.37;100.00
21111;BME280;10713;51.912;4.494;2023-02-12T11:14:54;103917.88;;;11.36;100.00
21111;BME280;10713;51.912;4.494;2023-02-12T11:17:32;103909.06;;;11.34;100.00
21111;BME280;10713;51.912;4.494;2023-02-12T11:22:50;103916.91;;;11.23;100.00
21111;BME280;10713;51.912;4.494;2023-02-12T11:25:16;103916.84;;;11.15;100.00
21111;BME280;10713;51.912;4.494;2023-02-12T11:27:42;103918.53;;;11.07;100.00
21111;BME280;10713;51.912;4.494;2023-02-12T11:30:15;103914.19;;;11.11;100.00
21111;BME280;10713;51.912;4.494;2023-02-12T11:32:41;103916.84;;;11.15;100.00
21111;BME280;10713;51.912;4.494;2023-02-12T11:35:23;103922.06;;;11.06;100.00
21111;BME280;10713;51.912;4.494;2023-02-12T11:37:56;103919.44;;;11.08;100.00
21111;BME280;10713;51.912;4.494;2023-02-12T11:40:24;103912.41;;;11.08;100.00
21111;BME280;10713;51.912;4.494;2023-02-12T11:42:54;103909.75;;;11.10;100.00
21111;BME280;10713;51.912;4.494;2023-02-12T11:45:26;103907.09;;;11.10;100.00
21111;BME280;10713;51.912;4.494;2023-02-12T11:47:54;103905.31;;;11.04;100.00
21111;BME280;10713;51.912;4.494;2023-02-12T11:50:23;103901.81;;;11.05;100.00
21111;BME280;10713;51.912;4.494;2023-02-12T11:52:51;103900.09;;;11.15;100.00
21111;BME280;10713;51.912;4.494;2023-02-12T11:55:27;103905.41;;;11.13;100.00
21111;BME280;10713;51.912;4.494;2023-02-12T12:00:32;103908.09;;;11.22;100.00
21111;BME280;10713;51.912;4.494;2023-02-12T12:05:51;103896.63;;;11.20;100.00
21111;BME280;10713;51.912;4.494;2023-02-12T12:08:24;103894.00;;;11.23;100.00
21111;BME280;10713;51.912;4.494;2023-02-12T12:11:43;103893.13;;;11.23;100.00
21111;BME280;10713;51.912;4.494;2023-02-12T12:14:12;103890.41;;;11.14;100.00
21111;BME280;10713;51.912;4.494;2023-02-12T12:16:46;103893.00;;;11.09;100.00
21111;BME280;10713;51.912;4.494;2023-02-12T12:19:39;103892.13;;;11.10;100.00
21111;BME280;10713;51.912;4.494;2023-02-12T12:22:43;103891.28;;;11.14;100.00
21111;BME280;10713;51.912;4.494;2023-02-12T12:25:29;103882.38;;;11.01;100.00
21111;BME280;10713;51.912;4.494;2023-02-12T12:33:24;103882.41;;;11.03;100.00
21111;BME280;10713;51.912;4.494;2023-02-12T12:44:08;103873.53;;;10.98;100.00
21111;BME280;10713;51.912;4.494;2023-02-12T12:47:20;103882.34;;;10.98;100.00
21111;BME280;10713;51.912;4.494;2023-02-12T12:49:59;103870.94;;;11.04;100.00
21111;BME280;10713;51.912;4.494;2023-02-12T12:52:44;103873.59;;;11.05;100.00
21111;BME280;10713;51.912;4.494;2023-02-12T12:55:43;103863.00;;;11.01;100.00
21111;BME280;10713;51.912;4.494;2023-02-12T13:00:56;103862.94;;;10.92;100.00
21111;BME280;10713;51.912;4.494;2023-02-12T13:06:28;103849.75;;;10.96;100.00
21111;BME280;10713;51.912;4.494;2023-02-12T13:09:02;103853.22;;;10.92;100.00
21111;BME280;10713;51.912;4.494;2023-02-12T13:15:16;103845.28;;;10.88;100.00
21111;BME280;10713;51.912;4.494;2023-02-12T13:17:52;103841.78;;;10.92;100.00
21111;BME280;10713;51.912;4.494;2023-02-12T13:20:31;103845.25;;;10.86;100.00
21111;BME280;10713;51.912;4.494;2023-02-12T13:23:10;103834.69;;;10.85;100.00
21111;BME280;10713;51.912;4.494;2023-02-12T13:28:40;103835.47;;;10.71;100.00
21111;BME280;10713;51.912;4.494;2023-02-12T13:31:08;103839.88;;;10.72;100.00
21111;BME280;10713;51.912;4.494;2023-02-12T13:33:41;103838.19;;;10.79;100.00
21111;BME280;10713;51.912;4.494;2023-02-12T13:36:10;103828.38;;;10.66;100.00
21111;BME280;10713;51.912;4.494;2023-02-12T13:38:41;103831.75;;;10.48;100.00
21111;BME280;10713;51.912;4.494;2023-02-12T13:41:09;103835.25;;;10.45;100.00
21111;BME280;10713;51.912;4.494;2023-02-12T13:52:18;103822.09;;;10.53;100.00
21111;BME280;10713;51.912;4.494;2023-02-12T13:57:18;103830.06;;;10.56;100.00
21111;BME280;10713;51.912;4.494;2023-02-12T13:59:51;103825.63;;;10.55;100.00
21111;BME280;10713;51.912;4.494;2023-02-12T14:05:00;103817.66;;;10.49;100.00
21111;BME280;10713;51.912;4.494;2023-02-12T14:07:44;103809.69;;;10.44;100.00
21111;BME280;10713;51.912;4.494;2023-02-12T14:10:30;103813.22;;;10.42;100.00
21111;BME280;10713;51.912;4.494;2023-02-12T14:13:07;103804.41;;;10.44;100.00
21111;BME280;10713;51.912;4.494;2023-02-12T14:15:37;103799.72;;;10.14;100.00
21111;BME280;10713;51.912;4.494;2023-02-12T14:20:45;103805.81;;;10.10;100.00
21111;BME280;10713;51.912;4.494;2023-02-12T14:23:26;103807.69;;;10.20;100.00
21111;BME280;10713;51.912;4.494;2023-02-12T14:26:13;103801.34;;;10.01;100.00
21111;BME280;10713;51.912;4.494;2023-02-12T14:33:46;103800.00;;;9.61;100.00
21111;BME280;10713;51.912;4.494;2023-02-12T14:41:41;103796.59;;;9.68;100.00
21111;BME280;10713;51.912;4.494;2023-02-12T14:49:46;103798.22;;;9.58;100.00
21111;BME280;10713;51.912;4.494;2023-02-12T14:54:52;103797.28;;;9.50;100.00
21111;BME280;10713;51.912;4.494;2023-02-12T14:57:39;103793.75;;;9.53;100.00
21111;BME280;10713;51.912;4.494;2023-02-12T15:00:39;103798.13;;;9.47;100.00
21111;BME280;10713;51.912;4.494;2023-02-12T15:03:17;103788.41;;;9.46;100.00
21111;BME280;10713;51.912;4.494;2023-02-12T15:05:57;103781.47;;;9.55;100.00
21111;BME280;10713;51.912;4.494;2023-02-12T15:12:06;103784.25;;;9.65;100.00
21111;BME280;10713;51.912;4.494;2023-02-12T15:14:39;103786.84;;;9.62;100.00
21111;BME280;10713;51.912;4.494;2023-02-12T15:17:10;103781.47;;;9.55;100.00